Goodrich, Texas
Current Conditions -  °F | °C
As of 10:53 AM on Saturday 25 Oct 2014 (Local Time) from KCXO Reporting Station
Clear Clear  
Wind Chill: 75°   Ceiling: Unl
Heat Index: 75°   Visibility: 10mi
Dew Point: 58°   Wind: 0mph
Humidity: 55%   Direction: NA
Pressure: 30.2"   Gusts: NA
Location:  30.61°N, 94.95°W
Report Text: KCXO 251553Z 00000KT 10SM CLR 24/14 A3020 RMK AO2 SLP223 T02390144
Loading
Personal Weather Stations






























Interactive Weather Map
Tropical Storm Tracking
New forecast layout! Learn more

10-Day Weather Forecast

Advertisements
Track Severe Weather on mobile